sensor_id;sensor_type;location;lat;lon;timestamp;P1;durP1;ratioP1;P2;durP2;ratioP2
26042;SDS011;13818;52.156;5.382;2023-07-29T00:00:06;2.67;;;0.80;;
26042;SDS011;13818;52.156;5.382;2023-07-29T00:02:33;2.72;;;0.80;;
26042;SDS011;13818;52.156;5.382;2023-07-29T00:05:00;1.83;;;0.68;;
26042;SDS011;13818;52.156;5.382;2023-07-29T00:07:26;2.28;;;0.73;;
26042;SDS011;13818;52.156;5.382;2023-07-29T00:09:53;3.45;;;0.80;;
26042;SDS011;13818;52.156;5.382;2023-07-29T00:12:19;3.60;;;1.15;;
26042;SDS011;13818;52.156;5.382;2023-07-29T00:14:47;2.30;;;0.70;;
26042;SDS011;13818;52.156;5.382;2023-07-29T00:17:13;2.25;;;0.60;;
26042;SDS011;13818;52.156;5.382;2023-07-29T00:19:40;1.42;;;0.93;;
26042;SDS011;13818;52.156;5.382;2023-07-29T00:22:06;2.42;;;0.70;;
26042;SDS011;13818;52.156;5.382;2023-07-29T00:24:33;4.47;;;0.90;;
26042;SDS011;13818;52.156;5.382;2023-07-29T00:27:00;2.97;;;0.90;;
26042;SDS011;13818;52.156;5.382;2023-07-29T00:29:26;0.65;;;0.50;;
26042;SDS011;13818;52.156;5.382;2023-07-29T00:31:54;0.82;;;0.57;;
26042;SDS011;13818;52.156;5.382;2023-07-29T00:34:20;1.05;;;0.68;;
26042;SDS011;13818;52.156;5.382;2023-07-29T00:36:47;0.88;;;0.50;;
26042;SDS011;13818;52.156;5.382;2023-07-29T00:39:13;3.13;;;0.70;;
26042;SDS011;13818;52.156;5.382;2023-07-29T00:41:40;2.17;;;0.80;;
26042;SDS011;13818;52.156;5.382;2023-07-29T00:44:06;0.95;;;0.50;;
26042;SDS011;13818;52.156;5.382;2023-07-29T00:46:33;2.80;;;0.77;;
26042;SDS011;13818;52.156;5.382;2023-07-29T00:49:03;2.15;;;0.60;;
26042;SDS011;13818;52.156;5.382;2023-07-29T00:51:30;1.35;;;0.80;;
26042;SDS011;13818;52.156;5.382;2023-07-29T00:53:56;1.27;;;0.70;;
26042;SDS011;13818;52.156;5.382;2023-07-29T00:56:23;1.27;;;0.80;;
26042;SDS011;13818;52.156;5.382;2023-07-29T00:58:49;1.42;;;0.60;;
26042;SDS011;13818;52.156;5.382;2023-07-29T01:01:23;1.25;;;0.60;;
26042;SDS011;13818;52.156;5.382;2023-07-29T01:03:50;2.05;;;0.77;;
26042;SDS011;13818;52.156;5.382;2023-07-29T01:06:18;0.73;;;0.50;;
26042;SDS011;13818;52.156;5.382;2023-07-29T01:08:55;4.60;;;1.08;;
26042;SDS011;13818;52.156;5.382;2023-07-29T01:11:32;1.88;;;0.70;;
26042;SDS011;13818;52.156;5.382;2023-07-29T01:14:05;3.80;;;0.90;;
26042;SDS011;13818;52.156;5.382;2023-07-29T01:16:42;2.65;;;0.77;;
26042;SDS011;13818;52.156;5.382;2023-07-29T01:19:14;2.28;;;0.65;;
26042;SDS011;13818;52.156;5.382;2023-07-29T01:21:54;1.33;;;0.70;;
26042;SDS011;13818;52.156;5.382;2023-07-29T01:24:22;2.15;;;0.93;;
26042;SDS011;13818;52.156;5.382;2023-07-29T01:26:48;3.00;;;1.02;;
26042;SDS011;13818;52.156;5.382;2023-07-29T01:29:15;5.85;;;0.82;;
26042;SDS011;13818;52.156;5.382;2023-07-29T01:31:43;1.90;;;0.80;;
26042;SDS011;13818;52.156;5.382;2023-07-29T01:34:13;1.65;;;0.95;;
26042;SDS011;13818;52.156;5.382;2023-07-29T01:36:43;1.42;;;0.80;;
26042;SDS011;13818;52.156;5.382;2023-07-29T01:39:11;4.82;;;1.20;;
26042;SDS011;13818;52.156;5.382;2023-07-29T01:41:41;1.92;;;0.90;;
26042;SDS011;13818;52.156;5.382;2023-07-29T01:44:09;2.75;;;1.27;;
26042;SDS011;13818;52.156;5.382;2023-07-29T01:46:37;2.30;;;1.30;;
26042;SDS011;13818;52.156;5.382;2023-07-29T01:49:03;1.95;;;1.10;;
26042;SDS011;13818;52.156;5.382;2023-07-29T01:51:30;3.78;;;1.20;;
26042;SDS011;13818;52.156;5.382;2023-07-29T01:53:56;4.40;;;1.35;;
26042;SDS011;13818;52.156;5.382;2023-07-29T01:58:52;2.67;;;1.10;;
26042;SDS011;13818;52.156;5.382;2023-07-29T02:01:18;3.05;;;1.15;;
26042;SDS011;13818;52.156;5.382;2023-07-29T02:03:45;4.13;;;1.85;;
26042;SDS011;13818;52.156;5.382;2023-07-29T02:06:11;3.95;;;1.50;;
26042;SDS011;13818;52.156;5.382;2023-07-29T02:08:38;3.75;;;1.33;;
26042;SDS011;13818;52.156;5.382;2023-07-29T02:11:05;3.63;;;1.65;;
26042;SDS011;13818;52.156;5.382;2023-07-29T02:13:32;6.65;;;1.90;;
26042;SDS011;13818;52.156;5.382;2023-07-29T02:16:00;3.45;;;1.52;;
26042;SDS011;13818;52.156;5.382;2023-07-29T02:18:26;7.53;;;2.17;;
26042;SDS011;13818;52.156;5.382;2023-07-29T02:20:53;5.28;;;1.67;;
26042;SDS011;13818;52.156;5.382;2023-07-29T02:23:19;2.72;;;1.58;;
26042;SDS011;13818;52.156;5.382;2023-07-29T02:25:45;3.13;;;1.63;;
26042;SDS011;13818;52.156;5.382;2023-07-29T02:28:12;5.25;;;1.77;;
26042;SDS011;13818;52.156;5.382;2023-07-29T02:30:40;5.38;;;2.13;;
26042;SDS011;13818;52.156;5.382;2023-07-29T02:33:10;6.80;;;1.98;;
26042;SDS011;13818;52.156;5.382;2023-07-29T02:35:37;3.50;;;1.48;;
26042;SDS011;13818;52.156;5.382;2023-07-29T02:38:03;3.92;;;1.70;;
26042;SDS011;13818;52.156;5.382;2023-07-29T02:40:30;5.07;;;1.48;;
26042;SDS011;13818;52.156;5.382;2023-07-29T02:42:56;5.15;;;1.88;;
26042;SDS011;13818;52.156;5.382;2023-07-29T02:45:23;3.28;;;1.65;;
26042;SDS011;13818;52.156;5.382;2023-07-29T02:47:49;7.10;;;1.95;;
26042;SDS011;13818;52.156;5.382;2023-07-29T02:50:17;3.85;;;1.83;;
26042;SDS011;13818;52.156;5.382;2023-07-29T02:52:44;4.63;;;1.95;;
26042;SDS011;13818;52.156;5.382;2023-07-29T02:55:10;5.10;;;1.55;;
26042;SDS011;13818;52.156;5.382;2023-07-29T02:57:37;3.22;;;1.75;;
26042;SDS011;13818;52.156;5.382;2023-07-29T03:00:03;6.57;;;1.58;;
26042;SDS011;13818;52.156;5.382;2023-07-29T03:02:32;3.85;;;2.13;;
26042;SDS011;13818;52.156;5.382;2023-07-29T03:04:58;8.35;;;2.03;;
26042;SDS011;13818;52.156;5.382;2023-07-29T03:07:26;4.82;;;1.80;;
26042;SDS011;13818;52.156;5.382;2023-07-29T03:09:52;3.85;;;2.33;;
26042;SDS011;13818;52.156;5.382;2023-07-29T03:12:19;10.02;;;2.25;;
26042;SDS011;13818;52.156;5.382;2023-07-29T03:14:47;5.25;;;1.80;;
26042;SDS011;13818;52.156;5.382;2023-07-29T03:17:14;5.65;;;1.80;;
26042;SDS011;13818;52.156;5.382;2023-07-29T03:19:40;2.67;;;1.25;;
26042;SDS011;13818;52.156;5.382;2023-07-29T03:22:06;6.88;;;1.80;;
26042;SDS011;13818;52.156;5.382;2023-07-29T03:24:34;6.47;;;2.10;;
26042;SDS011;13818;52.156;5.382;2023-07-29T03:27:01;3.63;;;1.42;;
26042;SDS011;13818;52.156;5.382;2023-07-29T03:29:27;3.17;;;1.42;;
26042;SDS011;13818;52.156;5.382;2023-07-29T03:31:54;4.53;;;1.73;;
26042;SDS011;13818;52.156;5.382;2023-07-29T03:34:21;5.15;;;1.60;;
26042;SDS011;13818;52.156;5.382;2023-07-29T03:36:54;2.95;;;1.42;;
26042;SDS011;13818;52.156;5.382;2023-07-29T03:39:20;2.75;;;1.30;;
26042;SDS011;13818;52.156;5.382;2023-07-29T03:41:48;5.88;;;1.70;;
26042;SDS011;13818;52.156;5.382;2023-07-29T03:44:16;4.95;;;1.42;;
26042;SDS011;13818;52.156;5.382;2023-07-29T03:46:43;2.78;;;1.35;;
26042;SDS011;13818;52.156;5.382;2023-07-29T03:49:09;4.60;;;1.45;;
26042;SDS011;13818;52.156;5.382;2023-07-29T03:51:38;1.95;;;1.25;;
26042;SDS011;13818;52.156;5.382;2023-07-29T03:54:04;2.33;;;1.27;;
26042;SDS011;13818;52.156;5.382;2023-07-29T03:56:31;3.70;;;1.50;;
26042;SDS011;13818;52.156;5.382;2023-07-29T03:59:03;5.13;;;1.45;;
26042;SDS011;13818;52.156;5.382;2023-07-29T04:01:31;5.28;;;1.80;;
26042;SDS011;13818;52.156;5.382;2023-07-29T04:03:57;5.22;;;1.70;;
26042;SDS011;13818;52.156;5.382;2023-07-29T04:06:24;3.40;;;1.80;;
26042;SDS011;13818;52.156;5.382;2023-07-29T04:08:50;4.65;;;1.70;;
26042;SDS011;13818;52.156;5.382;2023-07-29T04:11:17;4.60;;;1.77;;
26042;SDS011;13818;52.156;5.382;2023-07-29T04:13:44;7.60;;;2.03;;
26042;SDS011;13818;52.156;5.382;2023-07-29T04:16:11;2.95;;;1.60;;
26042;SDS011;13818;52.156;5.382;2023-07-29T04:18:38;3.85;;;2.08;;
26042;SDS011;13818;52.156;5.382;2023-07-29T04:21:04;3.45;;;1.83;;
26042;SDS011;13818;52.156;5.382;2023-07-29T04:23:31;2.55;;;1.63;;
26042;SDS011;13818;52.156;5.382;2023-07-29T04:25:57;3.47;;;2.40;;
26042;SDS011;13818;52.156;5.382;2023-07-29T04:28:23;3.38;;;1.83;;
26042;SDS011;13818;52.156;5.382;2023-07-29T04:30:50;3.55;;;1.40;;
26042;SDS011;13818;52.156;5.382;2023-07-29T04:33:18;5.63;;;1.70;;
26042;SDS011;13818;52.156;5.382;2023-07-29T04:35:45;3.45;;;1.15;;
26042;SDS011;13818;52.156;5.382;2023-07-29T04:38:11;3.65;;;1.63;;
26042;SDS011;13818;52.156;5.382;2023-07-29T04:40:37;2.70;;;1.25;;
26042;SDS011;13818;52.156;5.382;2023-07-29T04:43:04;4.05;;;1.42;;
26042;SDS011;13818;52.156;5.382;2023-07-29T04:45:30;4.03;;;1.52;;
26042;SDS011;13818;52.156;5.382;2023-07-29T04:47:58;5.15;;;1.58;;
26042;SDS011;13818;52.156;5.382;2023-07-29T04:50:26;2.70;;;1.25;;
26042;SDS011;13818;52.156;5.382;2023-07-29T04:52:52;1.55;;;0.98;;
26042;SDS011;13818;52.156;5.382;2023-07-29T04:55:19;2.58;;;1.10;;
26042;SDS011;13818;52.156;5.382;2023-07-29T04:57:46;7.13;;;1.38;;
26042;SDS011;13818;52.156;5.382;2023-07-29T05:00:12;1.83;;;0.90;;
26042;SDS011;13818;52.156;5.382;2023-07-29T05:02:38;2.67;;;1.30;;
26042;SDS011;13818;52.156;5.382;2023-07-29T05:05:05;2.72;;;1.20;;
26042;SDS011;13818;52.156;5.382;2023-07-29T05:07:34;2.83;;;1.35;;
26042;SDS011;13818;52.156;5.382;2023-07-29T05:10:00;6.90;;;1.27;;
26042;SDS011;13818;52.156;5.382;2023-07-29T05:12:27;2.22;;;1.15;;
26042;SDS011;13818;52.156;5.382;2023-07-29T05:14:54;1.85;;;0.95;;
26042;SDS011;13818;52.156;5.382;2023-07-29T05:17:21;2.97;;;1.15;;
26042;SDS011;13818;52.156;5.382;2023-07-29T05:19:47;1.63;;;0.90;;
26042;SDS011;13818;52.156;5.382;2023-07-29T05:22:14;3.90;;;1.10;;
26042;SDS011;13818;52.156;5.382;2023-07-29T05:24:42;2.10;;;1.10;;
26042;SDS011;13818;52.156;5.382;2023-07-29T05:27:09;2.40;;;1.10;;
26042;SDS011;13818;52.156;5.382;2023-07-29T05:29:35;2.33;;;1.20;;
26042;SDS011;13818;52.156;5.382;2023-07-29T05:32:02;2.35;;;1.10;;
26042;SDS011;13818;52.156;5.382;2023-07-29T05:34:28;1.95;;;0.93;;
26042;SDS011;13818;52.156;5.382;2023-07-29T05:36:55;4.20;;;1.20;;
26042;SDS011;13818;52.156;5.382;2023-07-29T05:39:21;2.63;;;1.30;;
26042;SDS011;13818;52.156;5.382;2023-07-29T05:41:50;3.35;;;1.50;;
26042;SDS011;13818;52.156;5.382;2023-07-29T05:44:17;3.85;;;1.25;;
26042;SDS011;13818;52.156;5.382;2023-07-29T05:46:43;6.45;;;1.52;;
26042;SDS011;13818;52.156;5.382;2023-07-29T05:49:09;3.28;;;1.10;;
26042;SDS011;13818;52.156;5.382;2023-07-29T05:51:36;3.10;;;1.60;;
26042;SDS011;13818;52.156;5.382;2023-07-29T05:54:02;3.42;;;1.40;;
26042;SDS011;13818;52.156;5.382;2023-07-29T05:56:29;2.72;;;1.30;;
26042;SDS011;13818;52.156;5.382;2023-07-29T05:58:57;3.65;;;1.63;;
26042;SDS011;13818;52.156;5.382;2023-07-29T06:01:24;3.92;;;1.65;;
26042;SDS011;13818;52.156;5.382;2023-07-29T06:03:50;3.78;;;1.40;;
26042;SDS011;13818;52.156;5.382;2023-07-29T06:06:17;2.20;;;1.27;;
26042;SDS011;13818;52.156;5.382;2023-07-29T06:08:43;2.40;;;1.33;;
26042;SDS011;13818;52.156;5.382;2023-07-29T06:11:09;4.25;;;1.88;;
26042;SDS011;13818;52.156;5.382;2023-07-29T06:13:36;3.95;;;1.67;;
26042;SDS011;13818;52.156;5.382;2023-07-29T06:16:04;5.93;;;1.30;;
26042;SDS011;13818;52.156;5.382;2023-07-29T06:18:30;4.63;;;1.90;;
26042;SDS011;13818;52.156;5.382;2023-07-29T06:20:56;2.42;;;1.02;;
26042;SDS011;13818;52.156;5.382;2023-07-29T06:23:23;2.55;;;1.40;;
26042;SDS011;13818;52.156;5.382;2023-07-29T06:25:49;3.25;;;1.60;;
26042;SDS011;13818;52.156;5.382;2023-07-29T06:28:16;4.20;;;1.25;;
26042;SDS011;13818;52.156;5.382;2023-07-29T06:30:42;2.58;;;1.55;;
26042;SDS011;13818;52.156;5.382;2023-07-29T06:33:10;2.58;;;1.30;;
26042;SDS011;13818;52.156;5.382;2023-07-29T06:35:36;3.22;;;1.13;;
26042;SDS011;13818;52.156;5.382;2023-07-29T06:38:03;4.38;;;1.83;;
26042;SDS011;13818;52.156;5.382;2023-07-29T06:40:29;3.60;;;1.40;;
26042;SDS011;13818;52.156;5.382;2023-07-29T06:42:56;2.72;;;1.40;;
26042;SDS011;13818;52.156;5.382;2023-07-29T06:45:22;2.83;;;1.30;;
26042;SDS011;13818;52.156;5.382;2023-07-29T06:47:49;2.92;;;1.63;;
26042;SDS011;13818;52.156;5.382;2023-07-29T06:50:16;4.88;;;1.67;;
26042;SDS011;13818;52.156;5.382;2023-07-29T06:55:09;4.85;;;1.50;;
26042;SDS011;13818;52.156;5.382;2023-07-29T06:57:36;3.80;;;1.75;;
26042;SDS011;13818;52.156;5.382;2023-07-29T07:00:03;6.00;;;1.90;;
26042;SDS011;13818;52.156;5.382;2023-07-29T07:02:30;3.30;;;1.88;;
26042;SDS011;13818;52.156;5.382;2023-07-29T07:04:57;3.38;;;1.80;;
26042;SDS011;13818;52.156;5.382;2023-07-29T07:07:24;4.72;;;2.30;;
26042;SDS011;13818;52.156;5.382;2023-07-29T07:09:51;3.03;;;2.13;;
26042;SDS011;13818;52.156;5.382;2023-07-29T07:12:17;4.35;;;2.08;;
26042;SDS011;13818;52.156;5.382;2023-07-29T07:14:44;4.20;;;2.10;;
26042;SDS011;13818;52.156;5.382;2023-07-29T07:17:10;3.28;;;1.88;;
26042;SDS011;13818;52.156;5.382;2023-07-29T07:19:37;4.68;;;1.63;;
26042;SDS011;13818;52.156;5.382;2023-07-29T07:22:03;4.03;;;1.90;;
26042;SDS011;13818;52.156;5.382;2023-07-29T07:24:31;5.53;;;1.95;;
26042;SDS011;13818;52.156;5.382;2023-07-29T07:26:58;2.80;;;1.83;;
26042;SDS011;13818;52.156;5.382;2023-07-29T07:29:24;4.15;;;1.95;;
26042;SDS011;13818;52.156;5.382;2023-07-29T07:31:51;3.85;;;2.17;;
26042;SDS011;13818;52.156;5.382;2023-07-29T07:34:19;4.55;;;2.30;;
26042;SDS011;13818;52.156;5.382;2023-07-29T07:36:46;3.50;;;1.90;;
26042;SDS011;13818;52.156;5.382;2023-07-29T07:39:13;3.47;;;2.03;;
26042;SDS011;13818;52.156;5.382;2023-07-29T07:41:41;4.13;;;2.15;;
26042;SDS011;13818;52.156;5.382;2023-07-29T07:44:08;3.60;;;2.38;;
26042;SDS011;13818;52.156;5.382;2023-07-29T07:46:36;3.63;;;2.40;;
26042;SDS011;13818;52.156;5.382;2023-07-29T07:49:02;4.45;;;3.03;;
26042;SDS011;13818;52.156;5.382;2023-07-29T07:51:29;5.25;;;2.65;;
26042;SDS011;13818;52.156;5.382;2023-07-29T07:53:55;3.85;;;2.17;;
26042;SDS011;13818;52.156;5.382;2023-07-29T07:56:22;7.15;;;2.50;;
26042;SDS011;13818;52.156;5.382;2023-07-29T07:58:50;5.93;;;2.67;;
26042;SDS011;13818;52.156;5.382;2023-07-29T08:01:16;4.78;;;2.53;;
26042;SDS011;13818;52.156;5.382;2023-07-29T08:03:42;3.53;;;2.22;;
26042;SDS011;13818;52.156;5.382;2023-07-29T08:06:09;5.70;;;2.70;;
26042;SDS011;13818;52.156;5.382;2023-07-29T08:08:35;3.72;;;2.13;;
26042;SDS011;13818;52.156;5.382;2023-07-29T08:11:02;5.05;;;2.70;;
26042;SDS011;13818;52.156;5.382;2023-07-29T08:13:28;4.22;;;2.30;;
26042;SDS011;13818;52.156;5.382;2023-07-29T08:15:56;3.80;;;2.30;;
26042;SDS011;13818;52.156;5.382;2023-07-29T08:18:23;2.55;;;1.98;;
26042;SDS011;13818;52.156;5.382;2023-07-29T08:20:51;4.80;;;2.22;;
26042;SDS011;13818;52.156;5.382;2023-07-29T08:23:18;4.32;;;2.63;;
26042;SDS011;13818;52.156;5.382;2023-07-29T08:25:44;4.63;;;2.20;;
26042;SDS011;13818;52.156;5.382;2023-07-29T08:28:11;3.70;;;2.10;;
26042;SDS011;13818;52.156;5.382;2023-07-29T08:30:37;5.95;;;1.95;;
26042;SDS011;13818;52.156;5.382;2023-07-29T08:33:05;4.60;;;2.30;;
26042;SDS011;13818;52.156;5.382;2023-07-29T08:35:31;3.10;;;2.08;;
26042;SDS011;13818;52.156;5.382;2023-07-29T08:37:58;4.53;;;2.20;;
26042;SDS011;13818;52.156;5.382;2023-07-29T08:40:25;2.55;;;1.50;;
26042;SDS011;13818;52.156;5.382;2023-07-29T08:42:55;2.33;;;1.75;;
26042;SDS011;13818;52.156;5.382;2023-07-29T08:45:28;2.88;;;1.98;;
26042;SDS011;13818;52.156;5.382;2023-07-29T08:47:57;2.17;;;1.60;;
26042;SDS011;13818;52.156;5.382;2023-07-29T08:50:26;4.47;;;2.22;;
26042;SDS011;13818;52.156;5.382;2023-07-29T08:52:52;3.70;;;2.15;;
26042;SDS011;13818;52.156;5.382;2023-07-29T08:55:20;5.70;;;1.80;;
26042;SDS011;13818;52.156;5.382;2023-07-29T09:00:14;2.85;;;1.77;;
26042;SDS011;13818;52.156;5.382;2023-07-29T09:02:41;5.38;;;2.00;;
26042;SDS011;13818;52.156;5.382;2023-07-29T09:05:07;3.83;;;1.80;;
26042;SDS011;13818;52.156;5.382;2023-07-29T09:07:35;3.13;;;1.70;;
26042;SDS011;13818;52.156;5.382;2023-07-29T09:10:03;2.80;;;2.30;;
26042;SDS011;13818;52.156;5.382;2023-07-29T09:12:30;2.63;;;2.03;;
26042;SDS011;13818;52.156;5.382;2023-07-29T09:14:56;4.68;;;1.95;;
26042;SDS011;13818;52.156;5.382;2023-07-29T09:17:23;5.93;;;2.38;;
26042;SDS011;13818;52.156;5.382;2023-07-29T09:19:50;8.68;;;2.10;;
26042;SDS011;13818;52.156;5.382;2023-07-29T09:22:17;3.30;;;1.77;;
26042;SDS011;13818;52.156;5.382;2023-07-29T09:24:46;3.33;;;1.60;;
26042;SDS011;13818;52.156;5.382;2023-07-29T09:27:23;4.22;;;1.75;;
26042;SDS011;13818;52.156;5.382;2023-07-29T09:29:50;3.60;;;1.83;;
26042;SDS011;13818;52.156;5.382;2023-07-29T09:32:19;3.67;;;1.90;;
26042;SDS011;13818;52.156;5.382;2023-07-29T09:34:47;3.83;;;1.88;;
26042;SDS011;13818;52.156;5.382;2023-07-29T09:37:17;4.32;;;2.17;;
26042;SDS011;13818;52.156;5.382;2023-07-29T09:39:45;4.15;;;1.70;;
26042;SDS011;13818;52.156;5.382;2023-07-29T09:42:16;3.20;;;1.60;;
26042;SDS011;13818;52.156;5.382;2023-07-29T09:44:43;3.92;;;1.45;;
26042;SDS011;13818;52.156;5.382;2023-07-29T09:47:14;3.58;;;1.90;;
26042;SDS011;13818;52.156;5.382;2023-07-29T09:49:45;2.80;;;1.88;;
26042;SDS011;13818;52.156;5.382;2023-07-29T09:52:11;3.78;;;2.03;;
26042;SDS011;13818;52.156;5.382;2023-07-29T09:54:40;4.13;;;2.40;;
26042;SDS011;13818;52.156;5.382;2023-07-29T09:57:09;3.58;;;1.55;;
26042;SDS011;13818;52.156;5.382;2023-07-29T09:59:36;3.90;;;2.33;;
26042;SDS011;13818;52.156;5.382;2023-07-29T10:02:03;5.30;;;2.70;;
26042;SDS011;13818;52.156;5.382;2023-07-29T10:04:30;3.40;;;2.17;;
26042;SDS011;13818;52.156;5.382;2023-07-29T10:06:58;3.10;;;2.03;;
26042;SDS011;13818;52.156;5.382;2023-07-29T10:09:26;5.43;;;2.05;;
26042;SDS011;13818;52.156;5.382;2023-07-29T10:11:54;3.20;;;1.98;;
26042;SDS011;13818;52.156;5.382;2023-07-29T10:14:24;3.85;;;2.00;;
26042;SDS011;13818;52.156;5.382;2023-07-29T10:16:54;2.33;;;1.90;;
26042;SDS011;13818;52.156;5.382;2023-07-29T10:19:21;3.17;;;2.42;;
26042;SDS011;13818;52.156;5.382;2023-07-29T10:21:49;3.05;;;2.10;;
26042;SDS011;13818;52.156;5.382;2023-07-29T10:24:17;3.70;;;2.70;;
26042;SDS011;13818;52.156;5.382;2023-07-29T10:26:53;3.55;;;2.50;;
26042;SDS011;13818;52.156;5.382;2023-07-29T10:29:24;3.60;;;1.98;;
26042;SDS011;13818;52.156;5.382;2023-07-29T10:31:57;3.78;;;2.22;;
26042;SDS011;13818;52.156;5.382;2023-07-29T10:34:27;2.20;;;1.73;;
26042;SDS011;13818;52.156;5.382;2023-07-29T10:36:54;3.30;;;2.30;;
26042;SDS011;13818;52.156;5.382;2023-07-29T10:39:21;2.92;;;2.10;;
26042;SDS011;13818;52.156;5.382;2023-07-29T10:41:54;3.58;;;2.28;;
26042;SDS011;13818;52.156;5.382;2023-07-29T10:47:17;4.55;;;2.35;;
26042;SDS011;13818;52.156;5.382;2023-07-29T10:49:45;4.93;;;2.05;;
26042;SDS011;13818;52.156;5.382;2023-07-29T10:54:42;6.38;;;2.28;;
26042;SDS011;13818;52.156;5.382;2023-07-29T10:57:12;3.70;;;2.28;;
26042;SDS011;13818;52.156;5.382;2023-07-29T10:59:39;7.63;;;2.85;;
26042;SDS011;13818;52.156;5.382;2023-07-29T11:02:15;4.50;;;2.85;;
26042;SDS011;13818;52.156;5.382;2023-07-29T11:04:47;4.60;;;2.92;;
26042;SDS011;13818;52.156;5.382;2023-07-29T11:07:20;3.90;;;2.42;;
26042;SDS011;13818;52.156;5.382;2023-07-29T11:09:55;6.10;;;3.05;;
26042;SDS011;13818;52.156;5.382;2023-07-29T11:12:35;3.63;;;2.42;;
26042;SDS011;13818;52.156;5.382;2023-07-29T11:17:54;4.70;;;2.42;;
26042;SDS011;13818;52.156;5.382;2023-07-29T11:20:23;3.65;;;2.38;;
26042;SDS011;13818;52.156;5.382;2023-07-29T11:22:51;2.80;;;1.75;;
26042;SDS011;13818;52.156;5.382;2023-07-29T11:25:18;2.20;;;1.55;;
26042;SDS011;13818;52.156;5.382;2023-07-29T11:27:46;1.90;;;1.27;;
26042;SDS011;13818;52.156;5.382;2023-07-29T11:30:13;3.50;;;1.42;;
26042;SDS011;13818;52.156;5.382;2023-07-29T11:32:42;1.40;;;0.98;;
26042;SDS011;13818;52.156;5.382;2023-07-29T11:35:11;2.70;;;1.13;;
26042;SDS011;13818;52.156;5.382;2023-07-29T11:37:40;3.45;;;1.02;;
26042;SDS011;13818;52.156;5.382;2023-07-29T11:40:08;1.42;;;0.80;;
26042;SDS011;13818;52.156;5.382;2023-07-29T11:42:37;2.47;;;1.30;;
26042;SDS011;13818;52.156;5.382;2023-07-29T11:45:04;1.67;;;0.98;;
26042;SDS011;13818;52.156;5.382;2023-07-29T11:47:32;2.17;;;0.90;;
26042;SDS011;13818;52.156;5.382;2023-07-29T11:50:02;1.52;;;1.13;;
26042;SDS011;13818;52.156;5.382;2023-07-29T11:52:30;1.42;;;0.90;;
26042;SDS011;13818;52.156;5.382;2023-07-29T11:54:57;1.48;;;0.75;;
26042;SDS011;13818;52.156;5.382;2023-07-29T11:57:25;1.48;;;0.80;;
26042;SDS011;13818;52.156;5.382;2023-07-29T11:59:52;1.15;;;0.70;;
26042;SDS011;13818;52.156;5.382;2023-07-29T12:02:19;1.23;;;0.75;;
26042;SDS011;13818;52.156;5.382;2023-07-29T12:04:47;1.98;;;0.80;;
26042;SDS011;13818;52.156;5.382;2023-07-29T12:07:14;1.67;;;0.90;;
26042;SDS011;13818;52.156;5.382;2023-07-29T12:09:44;1.70;;;0.85;;
26042;SDS011;13818;52.156;5.382;2023-07-29T12:12:12;1.25;;;0.80;;
26042;SDS011;13818;52.156;5.382;2023-07-29T12:14:39;1.92;;;1.02;;
26042;SDS011;13818;52.156;5.382;2023-07-29T12:17:24;1.85;;;1.25;;
26042;SDS011;13818;52.156;5.382;2023-07-29T12:19:53;2.05;;;0.93;;
26042;SDS011;13818;52.156;5.382;2023-07-29T12:22:20;1.45;;;0.75;;
26042;SDS011;13818;52.156;5.382;2023-07-29T12:24:49;1.48;;;0.68;;
26042;SDS011;13818;52.156;5.382;2023-07-29T12:27:17;1.10;;;0.60;;
26042;SDS011;13818;52.156;5.382;2023-07-29T12:29:43;1.10;;;0.63;;
26042;SDS011;13818;52.156;5.382;2023-07-29T12:32:13;0.73;;;0.50;;
26042;SDS011;13818;52.156;5.382;2023-07-29T12:34:40;1.73;;;0.90;;
26042;SDS011;13818;52.156;5.382;2023-07-29T12:37:06;2.08;;;0.93;;
26042;SDS011;13818;52.156;5.382;2023-07-29T12:39:34;1.38;;;0.80;;
26042;SDS011;13818;52.156;5.382;2023-07-29T12:42:02;1.90;;;0.77;;
26042;SDS011;13818;52.156;5.382;2023-07-29T12:44:29;1.70;;;0.93;;
26042;SDS011;13818;52.156;5.382;2023-07-29T12:46:57;3.38;;;0.80;;
26042;SDS011;13818;52.156;5.382;2023-07-29T12:49:23;2.00;;;0.95;;
26042;SDS011;13818;52.156;5.382;2023-07-29T12:51:50;1.73;;;0.90;;
26042;SDS011;13818;52.156;5.382;2023-07-29T12:54:17;1.35;;;0.88;;
26042;SDS011;13818;52.156;5.382;2023-07-29T12:56:43;2.17;;;1.08;;
26042;SDS011;13818;52.156;5.382;2023-07-29T12:59:11;1.77;;;1.00;;
26042;SDS011;13818;52.156;5.382;2023-07-29T13:01:37;1.90;;;0.90;;
26042;SDS011;13818;52.156;5.382;2023-07-29T13:04:04;1.77;;;1.08;;
26042;SDS011;13818;52.156;5.382;2023-07-29T13:06:30;1.80;;;1.15;;
26042;SDS011;13818;52.156;5.382;2023-07-29T13:08:57;2.92;;;1.08;;
26042;SDS011;13818;52.156;5.382;2023-07-29T13:11:23;2.45;;;1.13;;
26042;SDS011;13818;52.156;5.382;2023-07-29T13:13:51;1.90;;;1.00;;
26042;SDS011;13818;52.156;5.382;2023-07-29T13:16:18;4.47;;;1.27;;
26042;SDS011;13818;52.156;5.382;2023-07-29T13:18:45;4.13;;;1.20;;
26042;SDS011;13818;52.156;5.382;2023-07-29T13:21:11;2.28;;;0.90;;
26042;SDS011;13818;52.156;5.382;2023-07-29T13:23:38;1.35;;;0.98;;
26042;SDS011;13818;52.156;5.382;2023-07-29T13:26:04;2.22;;;0.80;;
26042;SDS011;13818;52.156;5.382;2023-07-29T13:28:31;5.07;;;2.35;;
26042;SDS011;13818;52.156;5.382;2023-07-29T13:30:58;2.10;;;0.85;;
26042;SDS011;13818;52.156;5.382;2023-07-29T13:33:26;2.13;;;0.98;;
26042;SDS011;13818;52.156;5.382;2023-07-29T13:35:52;2.33;;;1.38;;
26042;SDS011;13818;52.156;5.382;2023-07-29T13:38:19;2.72;;;1.02;;
26042;SDS011;13818;52.156;5.382;2023-07-29T13:40:46;2.15;;;0.90;;
26042;SDS011;13818;52.156;5.382;2023-07-29T13:43:15;2.67;;;1.00;;
26042;SDS011;13818;52.156;5.382;2023-07-29T13:45:42;0.77;;;0.60;;
26042;SDS011;13818;52.156;5.382;2023-07-29T13:48:08;3.20;;;1.20;;
26042;SDS011;13818;52.156;5.382;2023-07-29T13:50:36;2.97;;;1.35;;
26042;SDS011;13818;52.156;5.382;2023-07-29T13:53:03;2.20;;;1.13;;
26042;SDS011;13818;52.156;5.382;2023-07-29T13:55:29;2.17;;;1.00;;
26042;SDS011;13818;52.156;5.382;2023-07-29T13:57:55;2.05;;;1.05;;
26042;SDS011;13818;52.156;5.382;2023-07-29T14:00:22;2.53;;;1.30;;
26042;SDS011;13818;52.156;5.382;2023-07-29T14:02:49;2.70;;;1.15;;
26042;SDS011;13818;52.156;5.382;2023-07-29T14:05:15;2.03;;;1.15;;
26042;SDS011;13818;52.156;5.382;2023-07-29T14:07:43;1.80;;;1.27;;
26042;SDS011;13818;52.156;5.382;2023-07-29T14:10:09;2.67;;;1.10;;
26042;SDS011;13818;52.156;5.382;2023-07-29T14:12:36;2.05;;;1.20;;
26042;SDS011;13818;52.156;5.382;2023-07-29T14:15:03;3.60;;;1.40;;
26042;SDS011;13818;52.156;5.382;2023-07-29T14:17:31;2.67;;;1.20;;
26042;SDS011;13818;52.156;5.382;2023-07-29T14:19:58;2.95;;;1.30;;
26042;SDS011;13818;52.156;5.382;2023-07-29T14:22:24;1.63;;;0.98;;
26042;SDS011;13818;52.156;5.382;2023-07-29T14:24:52;1.55;;;0.88;;
26042;SDS011;13818;52.156;5.382;2023-07-29T14:29:45;1.83;;;0.90;;
26042;SDS011;13818;52.156;5.382;2023-07-29T14:32:11;3.38;;;0.80;;
26042;SDS011;13818;52.156;5.382;2023-07-29T14:34:38;1.63;;;1.00;;
26042;SDS011;13818;52.156;5.382;2023-07-29T14:37:05;1.40;;;0.93;;
26042;SDS011;13818;52.156;5.382;2023-07-29T14:39:31;1.10;;;0.70;;
26042;SDS011;13818;52.156;5.382;2023-07-29T14:41:59;1.27;;;0.73;;
26042;SDS011;13818;52.156;5.382;2023-07-29T14:44:25;1.48;;;0.80;;
26042;SDS011;13818;52.156;5.382;2023-07-29T14:46:52;2.13;;;0.90;;
26042;SDS011;13818;52.156;5.382;2023-07-29T14:49:20;2.03;;;0.70;;
26042;SDS011;13818;52.156;5.382;2023-07-29T14:51:46;0.60;;;0.52;;
26042;SDS011;13818;52.156;5.382;2023-07-29T14:54:12;2.72;;;0.80;;
26042;SDS011;13818;52.156;5.382;2023-07-29T14:56:39;1.48;;;0.80;;
26042;SDS011;13818;52.156;5.382;2023-07-29T14:59:07;1.35;;;0.70;;
26042;SDS011;13818;52.156;5.382;2023-07-29T15:01:33;1.40;;;0.73;;
26042;SDS011;13818;52.156;5.382;2023-07-29T15:04:00;2.08;;;0.70;;
26042;SDS011;13818;52.156;5.382;2023-07-29T15:06:26;2.55;;;0.80;;